createdAt,value
2019-03-23T00:00:16.661Z,53.40
2019-03-23T00:03:21.635Z,56.13
2019-03-23T00:06:30.884Z,50.10
2019-03-23T00:09:33.158Z,42.83
2019-03-23T00:12:37.990Z,50.60
2019-03-23T00:15:42.823Z,48.20
2019-03-23T00:18:47.747Z,46.73
2019-03-23T00:21:52.730Z,48.77
2019-03-23T00:24:57.666Z,48.80
2019-03-23T00:28:02.532Z,53.13
2019-03-23T00:31:07.370Z,53.13
2019-03-23T00:34:12.224Z,51.13
2019-03-23T00:37:17.072Z,51.70
2019-03-23T00:40:21.918Z,49.33
2019-03-23T00:43:26.884Z,45.30
2019-03-23T00:46:31.883Z,50.23
2019-03-23T00:49:36.812Z,42.17
2019-03-23T00:52:41.684Z,42.00
2019-03-23T00:55:47.606Z,43.70
2019-03-23T00:58:52.510Z,39.30
2019-03-23T01:01:57.358Z,44.40
2019-03-23T01:05:02.209Z,44.53
2019-03-23T01:08:07.061Z,44.30
2019-03-23T01:11:12.065Z,43.80
2019-03-23T01:14:16.928Z,44.63
2019-03-23T01:17:23.553Z,41.70
2019-03-23T01:20:28.389Z,45.47
2019-03-23T01:23:33.218Z,42.37
2019-03-23T01:26:38.051Z,48.60
2019-03-23T01:29:42.971Z,47.63
2019-03-23T01:32:47.917Z,45.27
2019-03-23T01:35:54.196Z,42.60
2019-03-23T01:38:59.114Z,45.73
2019-03-23T01:42:04.237Z,47.17
2019-03-23T01:45:09.459Z,49.90
2019-03-23T01:48:16.142Z,48.63
2019-03-23T01:51:20.980Z,46.87
2019-03-23T01:54:25.801Z,48.13
2019-03-23T01:57:30.635Z,51.63
2019-03-23T02:00:35.603Z,49.47
2019-03-23T02:03:40.527Z,51.37
2019-03-23T02:06:45.756Z,46.30
2019-03-23T02:09:50.566Z,46.97
2019-03-23T02:12:55.509Z,43.47
2019-03-23T02:16:00.355Z,38.57
2019-03-23T02:19:06.739Z,41.23
2019-03-23T02:22:11.659Z,42.37
2019-03-23T02:25:16.533Z,42.20
2019-03-23T02:28:21.391Z,42.20
2019-03-23T02:31:26.242Z,44.67
2019-03-23T02:34:31.060Z,44.43
2019-03-23T02:37:35.891Z,35.50
2019-03-23T02:40:40.700Z,41.03
2019-03-23T02:43:45.538Z,40.53
2019-03-23T02:46:50.364Z,39.83
2019-03-23T02:49:55.292Z,42.53
2019-03-23T02:53:00.141Z,42.50
2019-03-23T02:56:05.076Z,43.40
2019-03-23T02:59:09.920Z,41.40
2019-03-23T03:02:16.564Z,40.53
2019-03-23T03:05:21.403Z,43.07
2019-03-23T03:08:26.294Z,41.10
2019-03-23T03:11:31.152Z,40.10
2019-03-23T03:14:38.117Z,42.30
2019-03-23T03:17:42.959Z,45.07
2019-03-23T03:20:47.907Z,47.13
2019-03-23T03:23:52.753Z,45.10
2019-03-23T03:26:57.666Z,52.23
2019-03-23T03:30:02.550Z,49.07
2019-03-23T03:33:07.454Z,52.77
2019-03-23T03:36:12.306Z,49.93
2019-03-23T03:39:17.241Z,48.33
2019-03-23T03:42:22.173Z,50.07
2019-03-23T03:45:28.041Z,54.23
2019-03-23T03:48:35.606Z,54.50
2019-03-23T03:51:40.454Z,54.27
2019-03-23T03:54:45.456Z,53.87
2019-03-23T03:57:50.306Z,55.80
2019-03-23T04:00:55.251Z,58.30
2019-03-23T04:04:00.225Z,55.93
2019-03-23T04:07:05.166Z,56.73
2019-03-23T04:10:10.325Z,53.20
2019-03-23T04:13:15.231Z,53.63
2019-03-23T04:16:20.085Z,53.43
2019-03-23T04:19:24.920Z,52.27
2019-03-23T04:22:29.777Z,51.43
2019-03-23T04:25:35.131Z,49.20
2019-03-23T04:28:39.949Z,49.70
2019-03-23T04:31:45.012Z,50.13
2019-03-23T04:34:49.946Z,50.93
2019-03-23T04:37:54.807Z,49.87
2019-03-23T04:40:59.745Z,50.17
2019-03-23T04:44:04.566Z,51.37
2019-03-23T04:47:09.406Z,51.27
2019-03-23T04:50:14.552Z,46.90
2019-03-23T04:53:19.406Z,49.70
2019-03-23T04:56:24.241Z,50.10
2019-03-23T04:59:29.070Z,51.90
2019-03-23T05:02:33.919Z,48.47
2019-03-23T05:05:38.823Z,47.40
2019-03-23T05:08:46.240Z,48.80
2019-03-23T05:11:51.068Z,45.47
2019-03-23T05:14:56.171Z,44.73
2019-03-23T05:18:01.133Z,45.00
2019-03-23T05:21:05.976Z,45.00
2019-03-23T05:24:10.939Z,43.37
2019-03-23T05:27:15.789Z,41.87
2019-03-23T05:30:20.629Z,42.20
2019-03-23T05:33:25.500Z,37.70
2019-03-23T05:36:30.483Z,35.97
2019-03-23T05:39:35.315Z,36.93
2019-03-23T05:42:40.170Z,38.53
2019-03-23T05:45:45.010Z,37.53
2019-03-23T05:48:49.939Z,38.83
2019-03-23T05:51:54.888Z,36.13
2019-03-23T05:54:59.853Z,37.83
2019-03-23T05:58:07.944Z,35.20
2019-03-23T06:01:12.878Z,34.67
2019-03-23T06:04:17.899Z,36.83
2019-03-23T06:07:22.832Z,35.37
2019-03-23T06:10:30.717Z,34.67
2019-03-23T06:13:35.562Z,34.97
2019-03-23T06:16:40.508Z,35.57
2019-03-23T06:19:45.442Z,34.97
2019-03-23T06:22:50.274Z,35.60
2019-03-23T06:25:56.404Z,33.63
2019-03-23T06:29:02.905Z,37.47
2019-03-23T06:32:10.099Z,35.60
2019-03-23T06:35:15.095Z,36.83
2019-03-23T06:38:20.020Z,36.63
2019-03-23T06:41:24.860Z,33.83
2019-03-23T06:44:29.872Z,33.43
2019-03-23T06:47:34.790Z,33.40
2019-03-23T06:50:39.721Z,31.73
2019-03-23T06:53:44.808Z,30.63
2019-03-23T06:56:49.695Z,32.43
2019-03-23T06:59:54.720Z,31.93
2019-03-23T07:02:59.662Z,30.50
2019-03-23T07:06:04.621Z,29.80
2019-03-23T07:09:16.046Z,28.87
2019-03-23T07:12:16.134Z,30.27
2019-03-23T07:15:21.081Z,31.20
2019-03-23T07:18:25.912Z,28.87
2019-03-23T07:21:30.838Z,26.03
2019-03-23T07:24:35.737Z,28.13
2019-03-23T07:27:40.581Z,28.47
2019-03-23T07:30:45.524Z,28.17
2019-03-23T07:33:50.477Z,27.27
2019-03-23T07:36:55.328Z,28.93
2019-03-23T07:40:00.473Z,27.37
2019-03-23T07:43:05.344Z,28.67
2019-03-23T07:46:13.240Z,23.57
2019-03-23T07:49:18.089Z,25.77
2019-03-23T07:52:23.036Z,27.30
2019-03-23T07:55:27.873Z,23.73
2019-03-23T07:58:32.822Z,22.83
2019-03-23T08:01:39.414Z,23.00
2019-03-23T08:04:44.294Z,21.50
2019-03-23T08:07:49.263Z,18.80
2019-03-23T08:10:56.461Z,16.83
2019-03-23T08:14:01.308Z,16.83
2019-03-23T08:17:06.168Z,14.87
2019-03-23T08:20:10.997Z,14.87
2019-03-23T08:23:15.962Z,12.07
2019-03-23T08:26:20.855Z,9.13
2019-03-23T08:29:25.763Z,11.20
2019-03-23T08:32:30.620Z,8.97
2019-03-23T08:35:35.471Z,9.00
2019-03-23T08:38:41.518Z,9.97
2019-03-23T08:41:46.450Z,9.60
2019-03-23T08:44:51.278Z,8.90
2019-03-23T08:47:56.212Z,9.10
2019-03-23T08:51:01.119Z,8.63
2019-03-23T08:54:06.142Z,8.50
2019-03-23T08:57:11.004Z,8.30
2019-03-23T09:00:16.096Z,7.40
2019-03-23T09:03:20.986Z,7.90
2019-03-23T09:06:25.938Z,8.10
2019-03-23T09:09:30.789Z,7.63
2019-03-23T09:12:36.728Z,6.60
2019-03-23T09:15:41.761Z,6.23
2019-03-23T09:18:46.699Z,5.57
2019-03-23T09:21:51.547Z,5.03
2019-03-23T09:24:56.912Z,4.80
2019-03-23T09:28:02.121Z,4.67
2019-03-23T09:31:06.960Z,4.70
2019-03-23T09:34:11.801Z,4.13
2019-03-23T09:37:16.833Z,4.27
2019-03-23T09:40:21.682Z,4.57
2019-03-23T09:43:26.638Z,4.13
2019-03-23T09:46:31.583Z,3.80
2019-03-23T09:49:36.430Z,4.00
2019-03-23T09:52:41.588Z,3.30
2019-03-23T09:55:46.419Z,4.10
2019-03-23T09:58:51.271Z,4.30
2019-03-23T10:01:57.101Z,3.50
2019-03-23T10:05:01.998Z,4.00
2019-03-23T10:08:06.956Z,3.13
2019-03-23T10:11:11.905Z,3.80
2019-03-23T10:14:16.838Z,3.70
2019-03-23T10:17:21.913Z,3.37
2019-03-23T10:20:26.965Z,3.47
2019-03-23T10:23:31.918Z,3.40
2019-03-23T10:26:38.242Z,2.97
2019-03-23T10:29:43.089Z,3.40
2019-03-23T10:32:47.949Z,3.83
2019-03-23T10:35:52.824Z,3.37
2019-03-23T10:38:59.280Z,3.20
2019-03-23T10:42:04.325Z,3.87
2019-03-23T10:45:09.811Z,2.83
2019-03-23T10:48:14.633Z,3.60
2019-03-23T10:51:19.684Z,3.83
2019-03-23T10:54:24.544Z,3.97
2019-03-23T10:57:29.393Z,3.03
2019-03-23T11:00:34.342Z,4.60
2019-03-23T11:03:39.204Z,3.30
2019-03-23T11:06:44.060Z,3.33
2019-03-23T11:09:48.937Z,4.03
2019-03-23T11:12:53.796Z,4.20
2019-03-23T11:15:59.750Z,3.20
2019-03-23T11:19:13.270Z,3.27
2019-03-23T11:22:11.375Z,3.70
2019-03-23T11:25:16.234Z,2.90
2019-03-23T11:28:21.192Z,3.80
2019-03-23T11:31:27.458Z,3.00
2019-03-23T11:34:33.416Z,2.90
2019-03-23T11:37:38.542Z,3.50
2019-03-23T11:40:52.757Z,3.43
2019-03-23T11:43:52.049Z,3.20
2019-03-23T11:46:59.996Z,3.60
2019-03-23T11:50:05.606Z,3.10
2019-03-23T11:53:10.564Z,2.90
2019-03-23T11:56:16.631Z,2.67
2019-03-23T11:59:21.493Z,2.37
2019-03-23T12:02:26.362Z,3.07
2019-03-23T12:05:31.242Z,2.33
2019-03-23T12:08:36.131Z,2.30
2019-03-23T12:11:43.140Z,3.00
2019-03-23T12:14:48.003Z,2.87
2019-03-23T12:17:52.850Z,3.30
2019-03-23T12:20:57.689Z,2.70
2019-03-23T12:24:02.537Z,3.03
2019-03-23T12:27:07.633Z,2.43
2019-03-23T12:30:14.567Z,2.80
2019-03-23T12:33:21.430Z,2.67
2019-03-23T12:36:26.051Z,2.97
2019-03-23T12:39:31.024Z,2.73
2019-03-23T12:42:36.010Z,2.97
2019-03-23T12:45:41.033Z,2.73
2019-03-23T12:48:45.887Z,2.73
2019-03-23T12:51:53.034Z,2.47
2019-03-23T12:54:57.898Z,3.07
2019-03-23T12:58:05.739Z,2.03
2019-03-23T13:01:15.095Z,2.57
2019-03-23T13:04:19.962Z,2.13
2019-03-23T13:07:24.795Z,2.50
2019-03-23T13:10:29.640Z,2.80
2019-03-23T13:13:35.982Z,3.50
2019-03-23T13:16:40.946Z,2.90
2019-03-23T13:19:45.934Z,3.23
2019-03-23T13:22:50.787Z,2.53
2019-03-23T13:25:55.726Z,2.40
2019-03-23T13:29:00.623Z,2.20
2019-03-23T13:32:05.704Z,1.80
2019-03-23T13:35:11.448Z,2.30
2019-03-23T13:38:16.300Z,2.90
2019-03-23T13:41:23.932Z,3.17
2019-03-23T13:44:28.757Z,3.63
2019-03-23T13:47:33.777Z,3.53
2019-03-23T13:50:40.443Z,3.83
2019-03-23T13:53:45.464Z,4.63
2019-03-23T13:56:50.334Z,3.00
2019-03-23T13:59:55.207Z,2.80
2019-03-23T14:03:00.095Z,3.70
2019-03-23T14:06:05.149Z,3.30
2019-03-23T14:09:10.021Z,3.37
2019-03-23T14:12:14.979Z,3.77
2019-03-23T14:15:21.356Z,3.07
2019-03-23T14:18:27.432Z,3.33
2019-03-23T14:21:32.271Z,3.10
2019-03-23T14:24:37.119Z,3.90
2019-03-23T14:27:42.100Z,3.27
2019-03-23T14:30:46.945Z,2.60
2019-03-23T14:33:51.782Z,2.87
2019-03-23T14:36:56.822Z,3.87
2019-03-23T14:40:01.688Z,2.63
2019-03-23T14:43:08.998Z,3.37
2019-03-23T14:46:15.409Z,3.83
2019-03-23T14:49:25.933Z,3.57
2019-03-23T14:52:30.775Z,2.07
2019-03-23T14:55:37.438Z,2.63
2019-03-23T14:58:44.404Z,2.67
2019-03-23T15:01:49.276Z,2.50
2019-03-23T15:04:54.269Z,3.30
2019-03-23T15:07:59.156Z,2.73
2019-03-23T15:11:04.258Z,2.57
2019-03-23T15:14:09.098Z,2.17
2019-03-23T15:17:13.958Z,2.87
2019-03-23T15:20:55.987Z,2.77
2019-03-23T15:36:27.741Z,2.33
2019-03-23T15:39:39.332Z,2.87
2019-03-23T15:47:54.235Z,2.80
2019-03-23T15:55:56.544Z,2.37
2019-03-23T15:59:10.287Z,2.03
2019-03-23T16:06:01.833Z,2.33
2019-03-23T16:13:12.035Z,4.77
2019-03-23T16:25:09.949Z,2.77
2019-03-23T16:29:18.201Z,2.17
2019-03-23T16:33:33.589Z,2.50
2019-03-23T16:45:26.274Z,2.73
2019-03-23T17:13:04.616Z,3.57
2019-03-23T17:35:56.298Z,4.27
2019-03-23T17:39:58.803Z,3.40
2019-03-23T17:58:52.244Z,3.00
2019-03-23T18:01:58.059Z,3.47
2019-03-23T18:08:55.368Z,3.77
2019-03-23T18:12:23.374Z,2.90
2019-03-23T18:31:08.550Z,4.20
2019-03-23T18:34:24.328Z,4.73
2019-03-23T18:37:37.450Z,3.63
2019-03-23T18:40:51.520Z,3.67
2019-03-23T18:44:16.352Z,4.10
2019-03-23T18:48:59.347Z,4.13
2019-03-23T18:52:57.217Z,4.90
2019-03-23T18:56:11.336Z,5.10
2019-03-23T19:03:23.352Z,4.37
2019-03-23T19:06:53.487Z,4.03
2019-03-23T19:10:26.720Z,3.80
2019-03-23T19:13:57.697Z,4.50
2019-03-23T19:36:43.697Z,5.30
2019-03-23T19:39:49.544Z,4.03
2019-03-23T19:42:55.545Z,3.83
2019-03-23T19:46:08.914Z,4.60
2019-03-23T19:49:18.286Z,3.70
2019-03-23T19:53:11.788Z,4.37
2019-03-23T19:56:19.358Z,3.67
2019-03-23T19:59:25.418Z,5.53
2019-03-23T20:02:31.332Z,4.37
2019-03-23T20:05:41.999Z,3.83
2019-03-23T20:08:56.929Z,4.93
2019-03-23T20:12:15.093Z,5.40
2019-03-23T20:16:11.742Z,4.70
2019-03-23T20:18:58.699Z,4.30
2019-03-23T20:26:11.444Z,5.13
2019-03-23T20:37:08.524Z,4.43
2019-03-23T20:44:30.995Z,4.87
2019-03-23T20:51:31.837Z,3.83
2019-03-23T21:07:11.045Z,4.90
2019-03-23T21:14:32.343Z,4.27
2019-03-23T21:17:51.380Z,5.23
2019-03-23T21:21:05.748Z,4.67
2019-03-23T21:24:47.735Z,6.57
2019-03-23T21:28:12.798Z,4.73
2019-03-23T21:34:47.773Z,5.53
2019-03-23T21:42:19.955Z,4.97
2019-03-23T21:45:54.499Z,4.50
2019-03-23T21:48:57.296Z,4.80
2019-03-23T21:56:37.182Z,4.40
2019-03-23T22:00:17.735Z,5.53
2019-03-23T22:03:50.035Z,4.43
2019-03-23T22:07:03.480Z,5.07
2019-03-23T22:11:04.212Z,6.17
2019-03-23T22:18:18.797Z,4.50
2019-03-23T22:21:25.409Z,5.53
2019-03-23T22:24:31.430Z,4.50
2019-03-23T22:27:37.086Z,5.27
2019-03-23T22:30:44.125Z,5.13
2019-03-23T22:33:52.407Z,5.07
2019-03-23T22:37:01.624Z,5.50
2019-03-23T22:40:28.144Z,4.80
2019-03-23T22:43:42.725Z,4.03
2019-03-23T22:46:57.561Z,4.33
2019-03-23T22:50:12.610Z,4.03
2019-03-23T22:53:30.076Z,4.83
2019-03-23T22:56:38.711Z,4.97
2019-03-23T23:03:34.971Z,4.50
2019-03-23T23:06:43.385Z,4.63
2019-03-23T23:09:49.417Z,4.77
2019-03-23T23:13:25.013Z,5.13
2019-03-23T23:16:30.647Z,4.20
2019-03-23T23:19:44.400Z,5.13
2019-03-23T23:30:50.821Z,4.40
2019-03-23T23:32:40.355Z,3.93
2019-03-23T23:34:08.770Z,4.73
2019-03-23T23:37:36.947Z,4.27
2019-03-23T23:45:14.892Z,4.03
2019-03-23T23:48:19.812Z,4.80
2019-03-23T23:51:29.506Z,4.90
2019-03-23T23:54:56.818Z,4.30
2019-03-23T23:58:22.592Z,5.23
